Huntington, Missouri
Current Conditions -  °F | °C
As of 6:15 AM on Sunday 25 Jan 2015 (Local Time) from KHAE Reporting Station
Light Snow Light Snow  
Wind Chill: 41°   Ceiling: 1400
Heat Index: 41°   Visibility: 7mi
Dew Point: 37°   Wind: 3mph
Humidity: 87%   Direction: 170°S
Pressure: 29.57"   Gusts: NA
Location:  39.7145°N, 91.4209°W
Report Text: KHAE 251215Z AUTO 17003KT 7SM -SN SCT009 OVC014 05/03 A2957 RMK AO2 P0001
Loading
Personal Weather Stations






























Interactive Weather Map New forecast layout! Learn more

10-Day Weather Forecast

Advertisements
Track Severe Weather on mobile